Time;durP1;ratioP1;P1;durP2;ratioP2;P2;SDS_P1;SDS_P2;PMS_P1;PMS_P2;Temp;Humidity;BMP_temperature;BMP_pressure;BME280_temperature;BME280_humidity;BME280_pressure;Samples;Min_cycle;Max_cycle;Signal;HPM_P1;HPM_P2
2022/01/15 00:00:15;;;;;;;0.50;0.50;;;;;;;-2.00;71.13;96536.88;5037485;28;20120;-88
2022/01/15 00:02:42;;;;;;;0.98;0.70;;;;;;;-1.99;71.12;96533.47;5055210;28;20569;-86
2022/01/15 00:05:10;;;;;;;0.68;0.55;;;;;;;-1.95;71.03;96533.47;5055380;28;20530;-87
2022/01/15 00:07:38;;;;;;;1.10;0.50;;;;;;;-1.93;71.14;96541.16;5039470;28;20059;-85
2022/01/15 00:10:07;;;;;;;0.40;0.40;;;;;;;-1.94;70.96;96542.84;5064816;28;20053;-85
2022/01/15 00:12:40;;;;;;;1.30;0.50;;;;;;;-2.08;70.24;96524.13;5042696;28;20403;-88
2022/01/15 00:15:13;;;;;;;0.85;0.50;;;;;;;-1.88;69.23;96544.56;5037163;28;20080;-87
2022/01/15 00:20:16;;;;;;;0.38;0.30;;;;;;;-1.88;68.47;96526.66;5044943;28;20052;-84
2022/01/15 00:22:43;;;;;;;0.43;0.43;;;;;;;-1.85;68.98;96539.44;5068079;28;20049;-84
2022/01/15 00:25:11;;;;;;;2.85;0.60;;;;;;;-1.99;68.47;96546.28;5069155;28;20065;-86
2022/01/15 00:27:39;;;;;;;1.38;0.40;;;;;;;-1.90;68.57;96554.78;5066162;28;20057;-83
2022/01/15 00:30:07;;;;;;;0.40;0.40;;;;;;;-1.88;68.51;96550.53;5064946;28;20071;-87
2022/01/15 00:32:34;;;;;;;0.70;0.50;;;;;;;-1.91;68.69;96552.25;5061105;28;20080;-87
2022/01/15 00:35:04;;;;;;;0.50;0.40;;;;;;;-1.94;68.94;96542.00;5060905;28;20060;-83
2022/01/15 00:37:34;;;;;;;1.38;0.47;;;;;;;-1.81;69.32;96571.84;5064365;28;20080;-84
2022/01/15 00:40:05;;;;;;;2.90;0.40;;;;;;;-1.90;68.58;96549.66;5038164;28;20057;-84
2022/01/15 00:42:35;;;;;;;0.40;0.30;;;;;;;-1.87;68.32;96567.59;5066651;28;20044;-82
2022/01/15 00:45:09;;;;;;;0.52;0.52;;;;;;;-2.00;68.30;96563.34;5050460;28;20108;-83
2022/01/15 00:47:37;;;;;;;1.23;0.50;;;;;;;-1.87;68.23;96576.97;5067651;28;20072;-84
2022/01/15 00:50:06;;;;;;;0.95;0.30;;;;;;;-1.92;67.88;96576.13;5050152;28;20052;-82
2022/01/15 00:52:34;;;;;;;1.17;0.40;;;;;;;-1.83;68.21;96595.72;5067823;28;20053;-82
2022/01/15 00:55:01;;;;;;;0.43;0.35;;;;;;;-1.79;67.96;96593.16;5058486;28;20049;-83
2022/01/15 00:57:29;;;;;;;0.35;0.35;;;;;;;-1.81;68.26;96602.53;5059670;28;20091;-81
2022/01/15 00:59:56;;;;;;;1.55;0.50;;;;;;;-1.80;68.48;96591.47;5063643;28;20049;-82
2022/01/15 01:02:23;;;;;;;0.77;0.40;;;;;;;-1.80;69.29;96586.34;5065729;28;20114;-83
2022/01/15 01:04:50;;;;;;;5.07;0.85;;;;;;;-1.81;69.19;96594.88;5061786;28;20053;-86
2022/01/15 01:07:17;;;;;;;2.50;0.52;;;;;;;-1.82;69.51;96584.66;5055726;28;20060;-83
2022/01/15 01:10:03;;;;;;;1.48;0.47;;;;;;;-1.89;70.00;96600.00;5054494;28;20105;-84
2022/01/15 01:22:09;;;;;;;2.35;1.42;;;;;;;-1.93;70.04;96584.66;5058417;28;20506;-85
2022/01/15 01:23:32;;;;;;;2.63;0.50;;;;;;;-1.84;69.58;96600.00;5016193;28;20144;-84
2022/01/15 01:26:08;;;;;;;1.98;0.60;;;;;;;-1.79;69.52;96602.56;5056807;28;20059;-83
2022/01/15 01:28:40;;;;;;;0.85;0.60;;;;;;;-1.90;69.65;96571.84;5057898;28;20080;-84
2022/01/15 01:33:42;;;;;;;1.48;0.57;;;;;;;-1.79;69.38;96592.31;5058699;28;20048;-85
2022/01/15 01:36:40;;;;;;;2.55;1.00;;;;;;;-1.74;69.59;96616.19;5070726;28;20057;-85
2022/01/15 01:39:14;;;;;;;1.88;0.80;;;;;;;-1.77;69.85;96601.69;5079413;28;20037;-85
2022/01/15 01:41:48;;;;;;;2.13;0.60;;;;;;;-1.69;69.32;96614.50;5080347;28;20041;-87
2022/01/15 01:44:18;;;;;;;0.68;0.50;;;;;;;-1.66;69.36;96614.47;5060279;28;20045;-85
2022/01/15 01:47:03;;;;;;;0.95;0.50;;;;;;;-1.68;69.46;96611.94;5058870;28;20059;-86
2022/01/15 01:49:30;;;;;;;1.77;0.63;;;;;;;-1.71;69.14;96611.94;5041351;28;20049;-85
2022/01/15 01:51:57;;;;;;;2.63;0.63;;;;;;;-1.65;68.80;96626.44;5041236;28;20051;-85
2022/01/15 01:54:24;;;;;;;4.13;0.75;;;;;;;-1.65;68.77;96629.84;5057981;28;20059;-86
2022/01/15 01:56:51;;;;;;;1.00;0.30;;;;;;;-1.66;69.10;96622.16;5057979;28;20065;-86
2022/01/15 01:59:18;;;;;;;1.73;0.60;;;;;;;-1.72;68.86;96619.59;5025712;28;20052;-85
2022/01/15 02:01:45;;;;;;;3.80;0.50;;;;;;;-1.72;69.07;96633.28;5065008;28;20108;-85
2022/01/15 02:04:14;;;;;;;2.45;1.15;;;;;;;-1.81;69.39;96627.28;5074228;28;20087;-84
2022/01/15 02:06:41;;;;;;;0.73;0.73;;;;;;;-1.84;69.33;96646.06;5039215;28;20071;-83
2022/01/15 02:09:08;;;;;;;1.63;0.45;;;;;;;-1.78;69.52;96642.66;5064843;28;20155;-86
2022/01/15 02:11:35;;;;;;;1.15;0.63;;;;;;;-1.80;69.02;96629.00;5061067;28;20045;-86
2022/01/15 02:14:02;;;;;;;2.33;0.70;;;;;;;-1.68;69.78;96652.91;5057618;28;20060;-86
2022/01/15 02:16:29;;;;;;;2.50;0.60;;;;;;;-1.75;70.39;96640.09;5039487;28;20071;-86
2022/01/15 02:18:56;;;;;;;1.60;0.63;;;;;;;-1.78;70.92;96637.53;5057579;28;20418;-84
2022/01/15 02:23:53;;;;;;;4.20;1.15;;;;;;;-1.85;72.22;96639.22;5055731;28;20133;-85
2022/01/15 02:26:25;;;;;;;3.00;0.73;;;;;;;-1.84;72.31;96656.28;5057101;28;20057;-85
2022/01/15 02:28:58;;;;;;;2.85;0.60;;;;;;;-1.84;71.99;96653.72;5057122;28;20469;-85
2022/01/15 02:31:27;;;;;;;2.70;1.00;;;;;;;-1.77;72.62;96659.69;5057219;28;20060;-84
2022/01/15 02:33:56;;;;;;;2.00;0.82;;;;;;;-1.72;72.64;96665.66;5057441;28;20056;-88
2022/01/15 02:36:29;;;;;;;5.28;1.10;;;;;;;-1.76;72.41;96640.94;5057293;28;20147;-85
2022/01/15 02:38:57;;;;;;;1.67;1.00;;;;;;;-1.71;72.73;96655.44;5056498;28;20057;-85
2022/01/15 02:41:27;;;;;;;2.53;1.38;;;;;;;-1.75;72.66;96661.41;5037982;28;20143;-84
2022/01/15 02:43:55;;;;;;;3.80;1.20;;;;;;;-1.89;73.34;96663.13;5055501;28;20065;-84
2022/01/15 02:48:58;;;;;;;4.55;1.10;;;;;;;-2.07;73.75;96661.38;5063982;28;20060;-84
2022/01/15 02:51:33;;;;;;;4.32;0.80;;;;;;;-2.34;73.50;96616.16;5060043;28;20100;-85
2022/01/15 02:54:01;;;;;;;1.10;0.95;;;;;;;-2.19;73.49;96659.66;5054821;28;20053;-84
2022/01/15 02:56:33;;;;;;;2.05;0.80;;;;;;;-2.08;73.60;96675.00;5055508;28;20064;-83
2022/01/15 02:59:04;;;;;;;3.60;1.10;;;;;;;-2.11;73.28;96662.19;5054919;28;20060;-83
2022/01/15 03:01:32;;;;;;;4.05;1.30;;;;;;;-2.11;73.03;96677.56;5056133;28;20060;-85
2022/01/15 03:03:59;;;;;;;2.38;1.42;;;;;;;-2.18;73.60;96679.25;5058292;28;20195;-84
2022/01/15 03:06:27;;;;;;;4.97;1.90;;;;;;;-2.28;73.53;96673.25;5054289;28;20473;-84
2022/01/15 03:08:54;;;;;;;4.82;2.00;;;;;;;-2.32;73.66;96688.59;5036711;28;20564;-83
2022/01/15 03:11:21;;;;;;;2.58;1.60;;;;;;;-2.44;73.68;96662.97;5054077;28;20057;-82
2022/01/15 03:13:49;;;;;;;1.77;0.95;;;;;;;-2.36;73.88;96682.59;5054597;28;20523;-83
2022/01/15 03:16:19;;;;;;;2.50;1.20;;;;;;;-2.35;73.56;96668.97;5054078;28;20095;-82
2022/01/15 03:18:47;;;;;;;1.38;1.02;;;;;;;-2.18;73.37;96679.25;5054219;28;20052;-82
2022/01/15 03:21:14;;;;;;;1.45;0.88;;;;;;;-2.06;72.89;96683.56;5053740;28;20048;-84
2022/01/15 03:23:42;;;;;;;5.57;1.13;;;;;;;-1.96;72.29;96687.81;5054094;28;20053;-82
2022/01/15 03:26:11;;;;;;;3.13;1.20;;;;;;;-1.89;72.47;96689.56;5054541;28;20057;-83
2022/01/15 03:28:39;;;;;;;1.17;0.70;;;;;;;-1.91;72.34;96675.91;5053306;28;20099;-82
2022/01/15 03:31:06;;;;;;;2.97;1.20;;;;;;;-1.83;72.85;96680.16;5056482;28;20059;-84
2022/01/15 03:33:33;;;;;;;11.18;3.42;;;;;;;-1.81;72.99;96681.03;5068634;28;20055;-82
2022/01/15 03:36:05;;;;;;;4.13;1.52;;;;;;;-1.76;73.73;96702.38;5051916;28;20072;-82
2022/01/15 03:38:33;;;;;;;7.93;3.47;;;;;;;-1.72;73.63;96693.81;5056605;28;20100;-84
2022/01/15 03:41:00;;;;;;;18.35;6.10;;;;;;;-1.63;73.44;96698.97;5054883;28;20056;-85
2022/01/15 03:43:26;;;;;;;11.10;3.80;;;;;;;-1.58;73.62;96715.16;5054304;28;20053;-84
2022/01/15 03:45:53;;;;;;;12.25;4.70;;;;;;;-1.52;73.50;96706.66;5054416;28;20067;-85
2022/01/15 03:48:21;;;;;;;9.48;3.80;;;;;;;-1.47;73.55;96705.78;5053952;28;20111;-84
2022/01/15 03:50:47;;;;;;;7.82;3.95;;;;;;;-1.41;73.47;96722.03;5054083;28;20524;-84
2022/01/15 03:53:14;;;;;;;11.95;3.90;;;;;;;-1.48;73.76;96696.41;5053771;28;20052;-85
2022/01/15 03:55:41;;;;;;;3.20;2.25;;;;;;;-1.38;73.43;96714.31;5052822;28;20545;-84
2022/01/15 03:58:08;;;;;;;6.70;2.40;;;;;;;-1.38;73.92;96717.72;5053966;28;20119;-85
2022/01/15 04:00:35;;;;;;;3.47;2.20;;;;;;;-1.32;73.38;96709.22;5054012;28;20083;-85
2022/01/15 04:03:03;;;;;;;5.40;2.10;;;;;;;-1.34;73.37;96698.97;5054260;28;20053;-85
2022/01/15 04:05:31;;;;;;;5.47;3.10;;;;;;;-1.18;73.35;96722.00;5054122;28;20049;-86
2022/01/15 04:07:58;;;;;;;4.47;2.22;;;;;;;-1.20;73.54;96716.91;5054777;28;20052;-84
2022/01/15 04:10:26;;;;;;;4.60;2.00;;;;;;;-1.14;73.08;96722.03;5054232;28;20052;-87
2022/01/15 04:12:53;;;;;;;3.40;1.67;;;;;;;-1.11;73.23;96716.88;5055526;28;20061;-86
2022/01/15 04:15:21;;;;;;;2.40;1.52;;;;;;;-1.09;73.61;96735.66;5036846;28;20084;-84
2022/01/15 04:17:49;;;;;;;3.03;1.48;;;;;;;-1.10;73.16;96726.28;5053832;28;20049;-86
2022/01/15 04:20:22;;;;;;;2.50;1.50;;;;;;;-1.11;73.39;96728.84;5054112;28;20049;-84
2022/01/15 04:22:51;;;;;;;2.35;1.45;;;;;;;-1.25;73.57;96708.34;5053565;28;20049;-85
2022/01/15 04:25:18;;;;;;;3.20;1.80;;;;;;;-1.19;72.97;96733.13;5053844;28;20044;-84
2022/01/15 04:27:46;;;;;;;2.72;1.45;;;;;;;-1.26;73.18;96732.25;5053264;28;20434;-83
2022/01/15 04:30:15;;;;;;;3.63;1.67;;;;;;;-1.21;72.60;96763.84;5054399;28;20088;-85
2022/01/15 04:32:42;;;;;;;2.95;1.70;;;;;;;-1.27;72.65;96738.22;5055104;28;20103;-85
2022/01/15 04:35:09;;;;;;;4.05;1.60;;;;;;;-1.24;72.78;96738.25;5036728;28;20048;-86
2022/01/15 04:37:49;;;;;;;3.35;1.55;;;;;;;-1.28;72.37;96741.66;5055215;28;20064;-85
2022/01/15 04:40:16;;;;;;;1.90;1.52;;;;;;;-1.27;72.24;96740.78;5055875;28;20065;-84
2022/01/15 04:42:44;;;;;;;2.53;1.50;;;;;;;-1.29;72.25;96752.72;5069243;28;20032;-82
2022/01/15 04:45:12;;;;;;;2.92;1.73;;;;;;;-1.31;72.32;96757.88;5076077;28;20049;-85
2022/01/15 04:47:40;;;;;;;2.03;1.40;;;;;;;-1.29;72.25;96748.50;5072164;28;20063;-84
2022/01/15 04:50:10;;;;;;;1.58;1.30;;;;;;;-1.22;72.13;96769.00;5071499;28;20053;-83
2022/01/15 04:52:38;;;;;;;2.08;1.40;;;;;;;-1.20;72.16;96764.72;5073499;28;20033;-84
2022/01/15 04:55:09;;;;;;;1.20;1.10;;;;;;;-1.20;71.75;96768.13;5047819;28;20457;-86
2022/01/15 04:57:38;;;;;;;2.20;1.40;;;;;;;-1.18;71.62;96775.78;5053222;28;20056;-86
2022/01/15 05:00:09;;;;;;;2.45;1.35;;;;;;;-1.18;71.89;96781.78;5052307;28;20156;-87
2022/01/15 05:02:36;;;;;;;3.10;1.63;;;;;;;-1.26;72.02;96774.09;5053035;28;20059;-83
2022/01/15 05:05:04;;;;;;;4.35;1.80;;;;;;;-1.19;71.87;96799.72;5052481;28;20073;-84
2022/01/15 05:07:34;;;;;;;2.72;1.55;;;;;;;-1.19;71.47;96800.56;5053223;28;20056;-84
2022/01/15 05:10:01;;;;;;;2.30;1.80;;;;;;;-1.20;71.88;96796.31;5053099;28;20061;-86
2022/01/15 05:12:32;;;;;;;1.70;1.50;;;;;;;-1.29;72.09;96783.47;5036092;28;20049;-87
2022/01/15 05:14:59;;;;;;;5.28;1.42;;;;;;;-1.23;71.79;96793.72;5054139;28;20064;-84
2022/01/15 05:17:26;;;;;;;2.40;1.30;;;;;;;-1.33;71.73;96777.50;5053236;28;20419;-86
2022/01/15 05:19:53;;;;;;;2.95;1.63;;;;;;;-1.22;72.04;96812.53;5034565;28;20079;-81
2022/01/15 05:22:20;;;;;;;2.45;1.70;;;;;;;-1.25;71.70;96803.09;5055371;28;20109;-89
2022/01/15 05:24:47;;;;;;;1.67;1.58;;;;;;;-1.26;72.07;96815.06;5053186;28;20072;-88
2022/01/15 05:27:14;;;;;;;2.45;1.65;;;;;;;-1.33;71.68;96795.44;5052954;28;20509;-85
2022/01/15 05:29:41;;;;;;;2.33;1.60;;;;;;;-1.22;71.97;96815.94;5035574;28;20057;-86
2022/01/15 05:32:19;;;;;;;4.88;1.80;;;;;;;-1.27;71.74;96832.97;5052676;28;20441;-84
2022/01/15 05:34:46;;;;;;;4.72;1.95;;;;;;;-1.40;72.04;96833.81;5034824;28;20071;-85
2022/01/15 05:37:13;;;;;;;2.35;1.38;;;;;;;-1.42;72.49;96841.50;5053278;28;20140;-84
2022/01/15 05:39:39;;;;;;;3.83;1.75;;;;;;;-1.53;72.48;96838.91;5052880;28;20063;-84
2022/01/15 05:42:07;;;;;;;3.47;1.73;;;;;;;-1.53;72.78;96845.72;5053295;28;20049;-85
2022/01/15 05:44:39;;;;;;;2.35;1.65;;;;;;;-1.50;72.84;96849.16;5057118;28;20133;-86
2022/01/15 05:47:08;;;;;;;5.07;1.60;;;;;;;-1.43;72.46;96864.56;5052468;28;20536;-85
2022/01/15 05:49:36;;;;;;;1.52;1.42;;;;;;;-1.41;72.68;96873.94;5039226;28;20076;-87
2022/01/15 05:52:04;;;;;;;2.28;1.67;;;;;;;-1.40;72.83;96867.97;5053000;28;20136;-93
2022/01/15 05:54:31;;;;;;;1.65;1.38;;;;;;;-1.52;72.89;96842.34;5054126;28;20104;-88
2022/01/15 05:56:58;;;;;;;3.28;1.30;;;;;;;-1.42;73.44;96874.78;5054656;28;20045;-88
2022/01/15 05:59:25;;;;;;;2.45;1.20;;;;;;;-1.45;73.93;96879.91;5036661;28;20502;-91
2022/01/15 06:01:52;;;;;;;4.38;1.48;;;;;;;-1.49;74.11;96886.72;5038363;28;20052;-87
2022/01/15 06:04:19;;;;;;;1.58;1.48;;;;;;;-1.58;73.94;96881.56;5057921;28;20072;-87
2022/01/15 06:06:46;;;;;;;2.88;1.08;;;;;;;-1.63;73.70;96885.81;5057989;28;20434;-87
2022/01/15 06:09:13;;;;;;;1.90;0.95;;;;;;;-1.76;74.21;96890.03;5058041;28;20060;-89
2022/01/15 06:11:42;;;;;;;1.27;0.70;;;;;;;-1.71;74.28;96896.03;5021725;28;20140;-88
2022/01/15 06:14:09;;;;;;;3.03;1.02;;;;;;;-1.66;73.38;96894.34;5056502;28;20194;-85
2022/01/15 06:16:36;;;;;;;1.23;1.00;;;;;;;-1.53;73.40;96896.94;5055697;28;20052;-85
2022/01/15 06:19:03;;;;;;;0.80;0.80;;;;;;;-1.39;72.70;96912.38;5074538;28;20075;-84
2022/01/15 06:21:30;;;;;;;2.13;0.82;;;;;;;-1.31;72.70;96918.38;5044093;28;20025;-84
2022/01/15 06:23:57;;;;;;;1.13;0.60;;;;;;;-1.39;71.84;96905.53;5077841;28;20083;-83
2022/01/15 06:26:24;;;;;;;2.40;0.80;;;;;;;-1.33;72.08;96926.03;5059157;28;20041;-83
2022/01/15 06:28:51;;;;;;;2.03;0.82;;;;;;;-1.30;72.77;96926.03;5039859;28;20617;-89
2022/01/15 06:31:17;;;;;;;0.70;0.70;;;;;;;-1.33;73.11;96922.63;5058911;28;20044;-87
2022/01/15 06:33:44;;;;;;;1.50;0.80;;;;;;;-1.32;73.80;96937.13;5054111;28;20049;-86
2022/01/15 06:36:11;;;;;;;0.65;0.65;;;;;;;-1.42;73.70;96925.13;5059856;28;20422;-88
2022/01/15 06:38:38;;;;;;;2.25;1.00;;;;;;;-1.36;74.23;96946.50;5056189;28;20072;-83
2022/01/15 06:41:08;;;;;;;2.95;1.30;;;;;;;-1.35;74.22;96942.25;5054980;28;20041;-85
2022/01/15 06:43:35;;;;;;;1.25;1.00;;;;;;;-1.40;74.22;96942.22;5019948;28;20644;-86
2022/01/15 06:46:04;;;;;;;1.92;1.20;;;;;;;-1.31;74.19;96954.22;5023790;28;20075;-84
2022/01/15 06:48:35;;;;;;;1.52;1.02;;;;;;;-1.26;74.13;96971.31;5054963;28;20048;-85
2022/01/15 06:51:02;;;;;;;2.38;1.20;;;;;;;-1.22;73.83;96964.50;5048468;28;20056;-85
2022/01/15 06:53:29;;;;;;;1.25;1.00;;;;;;;-1.21;73.55;96958.50;5054862;28;20422;-85
2022/01/15 06:55:58;;;;;;;1.10;1.00;;;;;;;-1.00;72.86;96975.66;5046415;28;20044;-83
2022/01/15 06:58:26;;;;;;;2.00;0.88;;;;;;;-1.11;72.54;96950.00;5053189;28;20064;-85
2022/01/15 07:00:54;;;;;;;1.17;1.00;;;;;;;-0.93;72.42;96979.09;5051732;28;20066;-84
2022/01/15 07:03:24;;;;;;;2.28;0.90;;;;;;;-0.96;72.68;96994.47;5037050;28;20533;-87
2022/01/15 07:05:59;;;;;;;2.72;0.90;;;;;;;-1.18;72.61;96973.91;5035705;28;20490;-86
2022/01/15 07:08:31;;;;;;;0.85;0.60;;;;;;;-0.99;72.32;97020.06;5034287;28;20049;-83
2022/01/15 07:10:58;;;;;;;0.82;0.80;;;;;;;-0.96;72.12;96997.88;5054716;28;20052;-85
2022/01/15 07:13:30;;;;;;;2.15;0.82;;;;;;;-1.04;72.22;96981.63;5035771;28;20041;-82
2022/01/15 07:15:56;;;;;;;1.00;0.80;;;;;;;-0.88;72.44;97006.47;5054192;28;20083;-89
2022/01/15 07:18:23;;;;;;;1.23;0.77;;;;;;;-0.86;71.94;97004.75;5055163;28;20063;-82
2022/01/15 07:20:51;;;;;;;1.85;1.10;;;;;;;-0.80;71.91;96996.22;5054486;28;20434;-86
2022/01/15 07:23:18;;;;;;;1.80;0.90;;;;;;;-0.71;71.92;97003.94;5055908;28;20044;-85
2022/01/15 07:25:45;;;;;;;1.55;1.02;;;;;;;-0.65;71.33;96992.81;5041209;28;20052;-84
2022/01/15 07:28:24;;;;;;;2.42;1.60;;;;;;;-0.46;70.99;97027.91;5055189;28;20110;-88
2022/01/15 07:30:54;;;;;;;1.50;1.35;;;;;;;-0.59;71.14;97020.19;5061082;28;20057;-86
2022/01/15 07:33:22;;;;;;;1.90;1.50;;;;;;;-0.78;71.41;97016.72;5055839;28;20082;-86
2022/01/15 07:35:49;;;;;;;4.63;1.80;;;;;;;-0.75;71.14;97025.28;5054155;28;20099;-86
2022/01/15 07:38:17;;;;;;;1.55;1.05;;;;;;;-0.71;71.27;97038.94;5035444;28;20404;-85
2022/01/15 07:40:46;;;;;;;3.83;1.08;;;;;;;-0.81;71.49;97042.38;5054279;28;20593;-84
2022/01/15 07:43:15;;;;;;;1.42;1.00;;;;;;;-1.19;71.53;96984.13;5019538;28;20111;-84
2022/01/15 07:45:43;;;;;;;0.90;0.88;;;;;;;-0.86;71.04;97032.94;5019701;28;20054;-82
2022/01/15 07:48:14;;;;;;;2.58;0.90;;;;;;;-0.76;70.49;97048.34;5022089;28;20096;-85
2022/01/15 07:50:45;;;;;;;0.80;0.80;;;;;;;-0.74;70.69;97051.78;5050615;28;20111;-87
2022/01/15 07:53:16;;;;;;;0.70;0.70;;;;;;;-0.67;70.70;97069.75;5036461;28;20045;-86
2022/01/15 07:55:43;;;;;;;1.63;0.98;;;;;;;-0.69;71.24;97053.50;5054538;28;20419;-82
2022/01/15 07:58:10;;;;;;;0.70;0.70;;;;;;;-0.61;70.45;97068.91;5054140;28;20048;-83
2022/01/15 08:00:37;;;;;;;1.70;1.30;;;;;;;-0.66;70.49;97075.75;5037800;28;20048;-83
2022/01/15 08:03:05;;;;;;;3.88;0.85;;;;;;;-0.53;70.74;97074.91;5057585;28;20053;-81
2022/01/15 08:05:32;;;;;;;1.25;0.80;;;;;;;-0.47;69.99;97081.78;5053253;28;20052;-81
2022/01/15 08:07:58;;;;;;;1.63;1.10;;;;;;;-0.39;70.23;97080.06;5053608;28;20057;-83
2022/01/15 08:10:26;;;;;;;0.95;0.95;;;;;;;-0.34;69.83;97080.94;5052698;28;20422;-80
2022/01/15 08:12:54;;;;;;;1.00;0.90;;;;;;;-0.49;70.02;97080.91;5055380;28;20057;-79
2022/01/15 08:15:25;;;;;;;1.75;1.10;;;;;;;-0.51;69.98;97095.44;5056353;28;20408;-82
2022/01/15 08:17:53;;;;;;;2.30;1.38;;;;;;;-0.67;70.77;97077.44;5061508;28;20052;-82
2022/01/15 08:20:20;;;;;;;2.25;1.50;;;;;;;-0.55;71.11;97086.88;5038964;28;20568;-85
2022/01/15 08:22:47;;;;;;;1.48;0.80;;;;;;;-0.50;71.04;97099.72;5054813;28;20107;-81
2022/01/15 08:25:18;;;;;;;4.05;1.52;;;;;;;-0.54;71.36;97109.09;5055435;28;20049;-84
2022/01/15 08:27:46;;;;;;;1.00;0.90;;;;;;;-0.56;70.80;97117.63;5053172;28;20102;-85
2022/01/15 08:30:15;;;;;;;2.35;1.20;;;;;;;-0.64;70.94;97127.88;5037270;28;20056;-84
2022/01/15 08:32:43;;;;;;;1.70;1.30;;;;;;;-0.53;71.25;97107.41;5036887;28;20053;-84
2022/01/15 08:35:10;;;;;;;1.25;1.15;;;;;;;-0.40;70.53;97131.38;5054408;28;20137;-83
2022/01/15 08:37:38;;;;;;;2.90;1.83;;;;;;;-0.39;70.57;97117.69;5054160;28;20053;-85
2022/01/15 08:40:08;;;;;;;2.00;1.40;;;;;;;-0.20;70.37;97116.88;5053328;28;20083;-84
2022/01/15 08:42:36;;;;;;;1.52;1.30;;;;;;;-0.20;69.92;97122.00;5035455;28;20093;-83
2022/01/15 08:45:06;;;;;;;1.88;1.40;;;;;;;-0.50;69.87;97076.63;5032141;28;20148;-83
2022/01/15 08:47:36;;;;;;;1.95;1.30;;;;;;;-0.31;69.63;97104.03;5017276;28;20523;-83
2022/01/15 08:50:04;;;;;;;1.45;1.15;;;;;;;-0.08;69.74;97154.56;5048906;28;20053;-82
2022/01/15 08:52:31;;;;;;;2.35;1.45;;;;;;;-0.02;69.98;97152.84;5058999;28;20053;-85
2022/01/15 08:55:39;;;;;;;3.05;1.48;;;;;;;-0.35;70.05;97073.25;5031115;28;20067;-88
2022/01/15 08:58:27;;;;;;;3.10;1.67;;;;;;;-0.18;70.43;97088.66;5040608;28;20057;-83
2022/01/15 09:01:30;;;;;;;2.58;1.60;;;;;;;0.08;69.93;97117.78;5018996;28;20526;-84
2022/01/15 09:03:57;;;;;;;4.95;2.45;;;;;;;-0.13;70.44;97112.63;5020755;28;20060;-84
2022/01/15 09:06:30;;;;;;;3.67;1.50;;;;;;;-0.15;70.76;97158.81;5037915;28;20115;-80
2022/01/15 09:08:58;;;;;;;5.90;3.08;;;;;;;-0.21;71.01;97163.94;5034599;28;20557;-86
2022/01/15 09:11:25;;;;;;;2.63;1.35;;;;;;;-0.28;70.59;97188.72;5033657;28;20050;-84
2022/01/15 09:13:52;;;;;;;1.10;0.98;;;;;;;-0.42;70.32;97177.53;5033583;28;20053;-83
2022/01/15 09:16:19;;;;;;;2.20;1.50;;;;;;;-0.50;70.00;97180.06;5033975;28;20057;-84
2022/01/15 09:18:46;;;;;;;3.13;1.45;;;;;;;-0.57;69.57;97175.75;5032064;28;20053;-82
2022/01/15 09:21:16;;;;;;;2.92;1.02;;;;;;;-0.33;69.24;97190.38;5016000;28;20092;-82
2022/01/15 09:23:45;;;;;;;4.68;1.95;;;;;;;-0.19;68.37;97194.69;5036080;28;20056;-88
2022/01/15 09:26:46;;;;;;;2.47;1.10;;;;;;;-0.48;68.22;97167.25;5034859;22;20530;31
2022/01/15 09:31:52;;;;;;;1.80;1.17;;;;;;;-0.19;67.63;97180.19;4975854;28;20062;-82
2022/01/15 09:34:20;;;;;;;3.45;2.00;;;;;;;0.01;67.68;97200.78;4975749;28;20046;-81
2022/01/15 09:36:47;;;;;;;3.22;1.83;;;;;;;0.13;66.97;97190.53;4996105;28;20054;-81
2022/01/15 09:39:18;;;;;;;3.15;1.63;;;;;;;0.15;66.08;97219.63;4995975;28;20046;-83
2022/01/15 09:41:48;;;;;;;2.72;1.30;;;;;;;0.01;66.43;97202.47;4997591;28;20100;-83
2022/01/15 09:44:16;;;;;;;1.57;1.13;;;;;;;0.06;66.47;97224.72;4998620;28;20058;-83
2022/01/15 09:46:46;;;;;;;2.88;1.48;;;;;;;-0.08;66.16;97232.41;4980476;28;20050;-81
2022/01/15 09:49:22;;;;;;;2.35;1.27;;;;;;;-0.08;66.28;97223.84;4996464;28;20081;-84
2022/01/15 09:51:49;;;;;;;3.43;1.30;;;;;;;-0.01;65.84;97216.16;4996342;28;20061;-84
2022/01/15 09:54:18;;;;;;;2.47;1.42;;;;;;;-0.02;65.77;97198.22;4998090;28;20058;-81
2022/01/15 09:56:46;;;;;;;1.60;1.40;;;;;;;0.10;65.35;97215.34;4997582;28;20145;-85
2022/01/15 09:59:14;;;;;;;4.15;3.58;;;;;;;0.15;65.34;97224.78;4979733;28;20050;-85
2022/01/15 10:01:43;;;;;;;2.45;1.58;;;;;;;0.16;65.76;97229.03;4979645;28;20050;-82
2022/01/15 10:04:10;;;;;;;1.83;1.25;;;;;;;0.02;65.87;97212.72;4979106;28;20050;-82
2022/01/15 10:07:27;;;;;;;1.98;1.20;;;;;;;0.22;65.90;97240.19;4979395;28;20077;-83
2022/01/15 10:09:55;;;;;;;4.28;1.77;;;;;;;0.16;65.65;97236.75;4977778;28;20092;-84
2022/01/15 10:12:31;;;;;;;1.42;1.10;;;;;;;0.34;65.69;97251.31;4996002;28;20050;-83
2022/01/15 10:15:00;;;;;;;2.67;1.50;;;;;;;0.23;66.20;97235.03;4996757;28;20492;-85
2022/01/15 10:17:34;;;;;;;3.38;1.55;;;;;;;0.23;66.50;97260.72;4998667;28;20050;-86
2022/01/15 10:20:06;;;;;;;2.53;1.48;;;;;;;0.16;67.06;97252.16;4980863;28;20057;-82
2022/01/15 10:22:34;;;;;;;1.95;1.20;;;;;;;0.06;67.56;97252.13;4979191;28;20050;-86
2022/01/15 10:25:03;;;;;;;2.42;1.25;;;;;;;0.06;67.51;97267.50;4980901;28;20054;-82
2022/01/15 10:27:35;;;;;;;1.50;1.30;;;;;;;-0.12;67.62;97270.88;4997530;28;20068;-83
2022/01/15 10:30:20;;;;;;;0.73;0.73;;;;;;;-0.21;68.12;97280.25;5001120;28;20080;-84
2022/01/15 10:33:08;;;;;;;3.67;1.67;;;;;;;-0.35;68.54;97268.19;4996474;28;20046;-82
2022/01/15 10:35:40;;;;;;;2.60;1.30;;;;;;;-0.20;68.73;97291.34;4996677;28;20061;-84
2022/01/15 10:38:16;;;;;;;4.70;1.50;;;;;;;-0.16;68.67;97297.38;4997322;28;20447;-84
2022/01/15 10:40:44;;;;;;;3.40;1.35;;;;;;;-0.20;68.39;97278.53;4993453;28;20435;-84
2022/01/15 10:43:18;;;;;;;1.85;1.00;;;;;;;-0.11;68.14;97306.78;4996136;28;20129;-85
2022/01/15 10:46:03;;;;;;;2.60;0.98;;;;;;;-0.39;68.69;97287.84;4995581;28;20140;-88
2022/01/15 10:48:34;;;;;;;2.13;1.17;;;;;;;-0.38;68.58;97297.25;4994757;28;20054;-83
2022/01/15 10:51:08;;;;;;;1.60;1.20;;;;;;;-0.34;68.65;97310.97;4996001;28;20081;-83
2022/01/15 10:53:36;;;;;;;3.00;1.25;;;;;;;-0.35;68.99;97306.69;5001363;28;20062;-84
2022/01/15 10:56:06;;;;;;;1.67;1.20;;;;;;;-0.26;68.72;97319.53;4995730;28;20420;-83
2022/01/15 10:58:47;;;;;;;2.00;1.30;;;;;;;-0.31;68.17;97305.84;4998329;28;20062;-88
2022/01/15 11:01:44;;;;;;;4.38;1.40;;;;;;;-0.30;68.55;97322.94;4965821;28;20057;-84
2022/01/15 11:04:11;;;;;;;2.28;1.42;;;;;;;-0.27;68.06;97328.09;4964989;28;20059;-85
2022/01/15 11:06:40;;;;;;;2.97;1.70;;;;;;;-0.18;68.36;97338.41;4998492;28;20062;-85
2022/01/15 11:09:09;;;;;;;3.75;1.60;;;;;;;-0.18;68.39;97340.97;5009117;28;20049;-84
2022/01/15 11:12:09;;;;;;;10.43;4.88;;;;;;;-0.22;68.34;97341.81;4993139;28;20062;-83
2022/01/15 11:14:36;;;;;;;1.77;1.40;;;;;;;-0.19;68.62;97353.78;5003083;28;20153;-85
2022/01/15 11:17:04;;;;;;;5.03;2.10;;;;;;;-0.23;68.85;97361.47;4991285;28;20060;-83
2022/01/15 11:19:33;;;;;;;2.88;1.88;;;;;;;-0.14;68.45;97355.53;4991925;28;20054;-84
2022/01/15 11:22:03;;;;;;;2.78;1.95;;;;;;;-0.15;68.18;97369.25;4985945;28;20498;-86
2022/01/15 11:24:30;;;;;;;3.65;2.08;;;;;;;-0.28;68.38;97362.28;4986825;28;20042;-83
2022/01/15 11:27:00;;;;;;;5.95;2.13;;;;;;;-0.29;68.89;97373.41;4995948;28;20089;-87
2022/01/15 11:29:28;;;;;;;3.72;1.80;;;;;;;-0.40;68.98;97401.56;4996123;28;20058;-85
2022/01/15 11:32:00;;;;;;;3.25;1.90;;;;;;;-0.51;69.10;97380.13;4998441;28;20054;-84
2022/01/15 11:34:27;;;;;;;3.35;1.90;;;;;;;-0.93;69.38;97341.31;4995375;28;20141;-86
2022/01/15 11:36:55;;;;;;;6.57;3.08;;;;;;;-0.70;68.88;97407.31;4995106;28;20571;-90
2022/01/15 11:39:32;;;;;;;9.35;3.38;;;;;;;-0.62;69.21;97403.97;4995098;28;20056;-88
2022/01/15 11:42:02;;;;;;;2.35;1.55;;;;;;;-0.59;68.80;97417.66;4993251;28;20062;-86
2022/01/15 11:44:29;;;;;;;5.43;2.25;;;;;;;-0.54;68.96;97415.97;4986317;28;20137;-88
2022/01/15 11:47:00;;;;;;;2.53;1.50;;;;;;;-0.57;68.66;97416.81;4986379;28;20050;-82
2022/01/15 11:49:34;;;;;;;4.88;1.90;;;;;;;-0.63;68.50;97434.72;4987519;28;20121;-83
2022/01/15 11:52:11;;;;;;;6.25;2.50;;;;;;;-0.62;68.56;97431.31;4967145;28;20058;-89
2022/01/15 11:54:59;;;;;;;2.13;1.08;;;;;;;-0.76;68.75;97415.78;4990743;28;20594;-84
2022/01/15 11:57:36;;;;;;;3.50;1.63;;;;;;;-0.81;68.37;97430.28;4995336;28;20050;-85
2022/01/15 12:00:20;;;;;;;2.38;1.30;;;;;;;-0.71;68.63;97452.59;4974734;28;20513;-82
2022/01/15 12:03:16;;;;;;;1.40;0.98;;;;;;;-0.71;68.36;97457.72;4983663;28;20078;-83
2022/01/15 12:05:46;;;;;;;3.00;2.03;;;;;;;-0.80;68.47;97452.50;4972016;28;20086;-84
2022/01/15 12:08:13;;;;;;;5.32;1.42;;;;;;;-0.73;68.59;97455.97;4981993;28;20086;-86